Detall de PIREP

Printer-friendly versionPDF version

[2014/05/04 09:37:00]
Flight IATA:CT2200
Pilot Number:044
Company ICAO:CAT
Aircraft Type:F100/A
PAX:90
Aircraft Registration:PFJ
Departing Airport: LFMP
Destination Airport: LFOH
Alternate Airport:LFQQ
Online: VATSIM
Route:ORBIL/N0300F180 G36 GAI/N0350F280 UT186 PERIG UY156 ADABI UN858 VANAD/N0300F180 A34 DVL
Flight Level:F280
No Slew and time accel
No pause
Crash detect
Detect pilot in Cockpit between each 30 and 45 minutes
09:37 Zero fuel Weight: 79904 Lbs, Fuel Weight: 14521 Lbs
09:37 VATSIM:LFMP 040900Z 31021G34KT 280V340 CAVOK 16/02 Q1015 NOSIG
09:37 VATSIM:LFOH 040900Z AUTO 16005KT 110V190 9999 NSC 12/02 Q1025
09:38 Parking Brakes off
09:45 Take-off
09:45 Take off Weight: 94000 Lbs
09:45 Wind: 307º @ 021 Knots Heading: 325º
09:45 POS N42º 44´ 51´´ E002º 52´ 01´´
09:45 Flaps:1 at 175 Knots
09:45 Gear Up: 180 Knots
09:46 Flaps:0 at 182 Knots
10:00 Wind:280º@031 Knots Heading: 324º Ground Speed: 328 Knots Altitude 18198 ft
10:05 TOC
10:05 Fuel Weight: 11838 Lb
10:15 Wind:016º@028 Knots Heading: 334º Ground Speed: 417 Knots Altitude 28195 ft
10:30 Wind:059º@028 Knots Heading: 015º Ground Speed: 417 Knots Altitude 28254 ft
10:39 TOD
10:39 Fuel Weight: 8881 Lb
10:45 Wind:052º@024 Knots Heading: 349º Ground Speed: 350 Knots Altitude 18536 ft
11:00 Wind:010º@004 Knots Heading: 015º Ground Speed: 229 Knots Altitude 2972 ft
11:04 Flaps:1 at 199 Knots
11:04 Flaps:2 at 198 Knots
11:07 Flaps:3 at 170 Knots
11:07 Gear Down: 157 Knots
11:09 Flaps:4 at 141 Knots
11:10 TouchDown:Rate -205 ft/min Speed: 112 Knots
11:11 VATSIM:LFOH 041100Z AUTO 34006KT 310V010 9999 NSC 12/05 Q1024
11:11 Land
11:11 Wind:332º@007 Knots
11:11 Heading: 223º
11:11 Flight Duration: 01:26
11:11 Landing Weight: 87247 Lbs
11:11 POS N49º 31´ 59´´ E000º31 Knots Heading: 324º Ground Speed: 328 Knots Altitude 18198 ft
10:05 TOC
10:05 Fuel Weight: 11838 Lb
10:15 Wind:016º@028 Knots Heading: 334º Ground Speed: 417 Knots Altitude 28195 ft
10:30 Wind:059º@028 Knots Heading: 015º Ground Speed: 417 Knots Altitude 28254 ft
10:39 TOD
10:39 Fuel Weight: 8881 Lb
10:45 Wind:052º@024 Knots Heading: 349º Ground Speed: 350 Knots Altitude 18536 ft
11:00 Wind:010º@004 Knots Heading: 015º Ground Speed: 229 Knots Altitude 2972 ft
11:04 Flaps:1 at 199 Knots
11:04 Flaps:2 at 198 Knots
11:07 Flaps:3 at 170 Knots
11:07 Gear Down: 157 Knots
11:09 Flaps:4 at 141 Knots
11:10 TouchDown:Rate -205 ft/min Speed: 112 Knots
11:11 VATSIM:LFOH 041100Z AUTO 34006KT 310V010 9999 NSC 12/05 Q1024
11:11 Land
11:11 Wind:332º@007 Knots
11:11 Heading: 223º
11:11 Flight Duration: 01:26
11:11 Landing Weight: 87247 Lbs
11:11 POS N49º 31´ 59´´ E000º 05´ 13´´
11:15 Parking brakes on
11:15 Block to Block Duration: 01:37
11:15 Final Fuel: 7182 Lbls
11:15 Spent Fuel: 7339 Lbls
11:15 Flight Length: 467 NM
11:15 TOD Land Length: 146 NM

Exportar CSV

Powered by Drupal - Modified by Danger4k